createdAt,value
2018-06-08T11:36:55.387Z,25.20
2018-06-08T11:39:23.949Z,26.20
2018-06-08T11:44:21.591Z,26.40
2018-06-08T11:46:50.836Z,26.60
2018-06-08T11:49:19.554Z,26.70
2018-06-08T11:51:48.056Z,26.80
2018-06-08T11:54:16.943Z,26.80
2018-06-08T11:56:45.877Z,26.80
2018-06-08T11:59:15.709Z,26.90
2018-06-08T12:01:44.501Z,26.90
2018-06-08T12:04:13.622Z,27.00
2018-06-08T12:06:44.966Z,27.00
2018-06-08T12:09:13.628Z,27.00
2018-06-08T12:11:42.407Z,27.00
2018-06-08T12:14:11.470Z,27.10
2018-06-08T12:16:40.633Z,27.10
2018-06-08T12:19:10.256Z,27.10
2018-06-08T12:21:39.089Z,27.10
2018-06-08T12:24:07.615Z,27.10
2018-06-08T12:26:37.942Z,27.10
2018-06-08T12:29:06.889Z,27.10
2018-06-08T12:31:35.756Z,27.10
2018-06-08T12:34:05.132Z,27.10
2018-06-08T12:36:34.222Z,27.10
2018-06-08T12:39:06.239Z,27.10
2018-06-08T12:41:35.463Z,27.10
2018-06-08T12:44:04.813Z,27.10
2018-06-08T12:46:33.830Z,27.10
2018-06-08T12:49:02.746Z,27.20
2018-06-08T12:51:31.410Z,27.20
2018-06-08T12:54:01.128Z,27.20
2018-06-08T12:56:30.548Z,27.20
2018-06-08T12:58:59.442Z,27.20
2018-06-08T13:01:28.809Z,27.20
2018-06-08T13:03:58.981Z,27.20
2018-06-08T13:06:27.959Z,27.20
2018-06-08T13:08:56.931Z,27.30
2018-06-08T13:11:25.797Z,27.30
2018-06-08T13:13:54.925Z,27.30
2018-06-08T13:16:23.968Z,27.30
2018-06-08T13:18:54.484Z,27.30
2018-06-08T13:21:23.554Z,27.30
2018-06-08T13:23:52.506Z,27.30
2018-06-08T13:26:21.635Z,27.30
2018-06-08T13:28:51.154Z,27.30
2018-06-08T13:31:20.089Z,27.30
2018-06-08T13:33:49.576Z,27.30
2018-06-08T13:36:18.424Z,27.30
2018-06-08T13:38:47.796Z,27.30
2018-06-08T13:41:17.247Z,27.30
2018-06-08T13:43:48.692Z,27.30
2018-06-08T13:46:55.621Z,27.30
2018-06-08T13:49:24.770Z,27.30
2018-06-08T13:51:53.905Z,27.30
2018-06-08T13:54:23.016Z,27.30
2018-06-08T13:56:51.813Z,27.40
2018-06-08T13:59:20.738Z,27.30
2018-06-08T14:01:49.817Z,27.30
2018-06-08T14:04:19.157Z,27.40
2018-06-08T14:06:47.641Z,27.40
2018-06-08T14:09:17.971Z,27.40
2018-06-08T14:11:47.204Z,27.40
2018-06-08T14:14:16.513Z,27.40
2018-06-08T14:16:45.898Z,27.40
2018-06-08T14:19:14.830Z,27.40
2018-06-08T14:21:43.691Z,27.30
2018-06-08T14:24:12.935Z,27.30
2018-06-08T14:26:42.066Z,27.30
2018-06-08T14:31:40.776Z,27.30
2018-06-08T14:36:39.692Z,27.20
2018-06-08T14:39:09.409Z,27.20
2018-06-08T14:41:38.718Z,27.20
2018-06-08T14:44:07.926Z,27.20
2018-06-08T14:46:37.103Z,27.20
2018-06-08T14:49:06.533Z,27.20
2018-06-08T14:51:35.666Z,27.10
2018-06-08T14:54:04.625Z,27.10
2018-06-08T14:56:33.392Z,27.10
2018-06-08T14:59:02.349Z,27.10
2018-06-08T15:01:32.374Z,27.10
2018-06-08T15:04:01.539Z,27.00
2018-06-08T15:06:30.488Z,27.00
2018-06-08T15:09:01.420Z,27.00
2018-06-08T15:11:30.482Z,27.00
2018-06-08T15:13:59.489Z,27.00
2018-06-08T15:16:28.570Z,27.00
2018-06-08T15:18:57.470Z,27.00
2018-06-08T15:21:26.550Z,27.00
2018-06-08T15:23:55.892Z,27.00
2018-06-08T15:26:25.096Z,27.00
2018-06-08T15:28:54.071Z,26.90
2018-06-08T15:31:23.416Z,26.90
2018-06-08T15:33:52.292Z,26.90
2018-06-08T15:36:20.862Z,26.90
2018-06-08T15:38:50.018Z,26.90
2018-06-08T15:41:19.063Z,26.90
2018-06-08T15:43:48.930Z,26.90
2018-06-08T15:46:17.581Z,26.90
2018-06-08T15:48:46.857Z,26.80
2018-06-08T15:51:15.944Z,26.80
2018-06-08T15:53:44.692Z,26.80
2018-06-08T15:56:13.794Z,26.80
2018-06-08T15:58:42.817Z,26.80
2018-06-08T16:02:37.445Z,26.80
2018-06-08T16:05:05.963Z,26.80
2018-06-08T16:07:34.871Z,26.80
2018-06-08T16:10:03.656Z,26.70
2018-06-08T16:12:32.892Z,26.70
2018-06-08T16:15:02.436Z,26.80
2018-06-08T16:17:31.675Z,26.80
2018-06-08T16:20:00.605Z,26.80
2018-06-08T16:22:29.570Z,26.80
2018-06-08T16:24:59.673Z,26.80
2018-06-08T16:27:28.761Z,26.80
2018-06-08T16:29:58.116Z,26.80
2018-06-08T16:32:27.831Z,26.80
2018-06-08T16:34:56.695Z,26.80
2018-06-08T16:37:25.843Z,26.80
2018-06-08T16:39:54.654Z,26.80
2018-06-08T16:42:23.198Z,26.80
2018-06-08T16:44:52.087Z,26.80
2018-06-08T16:47:20.852Z,26.80
2018-06-08T16:49:49.862Z,26.80
2018-06-08T16:52:18.785Z,26.80
2018-06-08T16:54:47.741Z,26.80
2018-06-08T16:57:16.568Z,26.80
2018-06-08T16:59:45.540Z,26.90
2018-06-08T17:02:14.133Z,26.90
2018-06-08T17:04:42.887Z,26.90
